logo
Search for airport 
image banner adimage banner adimage banner ad
image banner ad

FMMR - Morafenobe

Located in , Madagascar

ICAO - FMMR, IATA - TVA

Data provided by Airmate  

General information

Coordinates: S17°51'1" E44°55'15"
Elevation is 748 feet MSL.
 
View others Airports in Mahajanga

Operational data

Special qualification required
Current time UTC:
Current local time:
Weather at : - ( 0 km )
METAR: ZMCK 231630Z 08003MPS CAVOK M25/M28 Q1025 NOSIG RMK QFE652.5 74
View NOTAMs / SUP AIP / TFR affecting this airport [VIEW]
Communications frequencies: [VIEW]

Runways:

Airport contact information

Address: Madagascar

Satellite view of FMMR